地図

経路データ

SID SEASON NUMBER BASIN SUBBASIN NAME ISO_TIME NATURE LAT LON WMO_WIND WMO_PRES WMO_AGENCY TRACK_TYPE DIST2LAND LANDFALL IFLAG USA_AGENCY USA_ATCF_ID USA_LAT USA_LON USA_RECORD USA_STATUS USA_WIND USA_PRES USA_SSHS USA_R34_NE USA_R34_SE USA_R34_SW USA_R34_NW USA_R50_NE USA_R50_SE USA_R50_SW USA_R50_NW USA_R64_NE USA_R64_SE USA_R64_SW USA_R64_NW USA_POCI USA_ROCI USA_RMW USA_EYE TOKYO_LAT TOKYO_LON TOKYO_GRADE TOKYO_WIND TOKYO_PRES TOKYO_R50_DIR TOKYO_R50_LONG TOKYO_R50_SHORT TOKYO_R30_DIR TOKYO_R30_LONG TOKYO_R30_SHORT TOKYO_LAND CMA_LAT CMA_LON CMA_CAT CMA_WIND CMA_PRES HKO_LAT HKO_LON HKO_CAT HKO_WIND HKO_PRES NEWDELHI_LAT NEWDELHI_LON NEWDELHI_GRADE NEWDELHI_WIND NEWDELHI_PRES NEWDELHI_CI NEWDELHI_DP NEWDELHI_POCI REUNION_LAT REUNION_LON REUNION_TYPE REUNION_WIND REUNION_PRES REUNION_TNUM REUNION_CI REUNION_RMW REUNION_R34_NE REUNION_R34_SE REUNION_R34_SW REUNION_R34_NW REUNION_R50_NE REUNION_R50_SE REUNION_R50_SW REUNION_R50_NW REUNION_R64_NE REUNION_R64_SE REUNION_R64_SW REUNION_R64_NW BOM_LAT BOM_LON BOM_TYPE BOM_WIND BOM_PRES BOM_TNUM BOM_CI BOM_RMW BOM_R34_NE BOM_R34_SE BOM_R34_SW BOM_R34_NW BOM_R50_NE BOM_R50_SE BOM_R50_SW BOM_R50_NW BOM_R64_NE BOM_R64_SE BOM_R64_SW BOM_R64_NW BOM_ROCI BOM_POCI BOM_EYE BOM_POS_METHOD BOM_PRES_METHOD NADI_LAT NADI_LON NADI_CAT NADI_WIND NADI_PRES WELLINGTON_LAT WELLINGTON_LON WELLINGTON_WIND WELLINGTON_PRES DS824_LAT DS824_LON DS824_STAGE DS824_WIND DS824_PRES TD9636_LAT TD9636_LON TD9636_STAGE TD9636_WIND TD9636_PRES TD9635_LAT TD9635_LON TD9635_WIND TD9635_PRES TD9635_ROCI NEUMANN_LAT NEUMANN_LON NEUMANN_CLASS NEUMANN_WIND NEUMANN_PRES MLC_LAT MLC_LON MLC_CLASS MLC_WIND MLC_PRES USA_GUST BOM_GUST BOM_GUST_PER REUNION_GUST REUNION_GUST_PER USA_SEAHGT USA_SEARAD_NE USA_SEARAD_SE USA_SEARAD_SW USA_SEARAD_NW STORM_SPEED STORM_DIR
1952241N08137 1952 57 WP MM MARY 1952-08-28 00:00:00 TS 8.00000 137.000 1004 tokyo main 987 987 _O____________ -1 8.00000 137.000 2 1004 0 0 0 15 317
1952241N08137 1952 57 WP MM MARY 1952-08-28 03:00:00 TS 8.54522 136.488 main 1035 1035 _P____________ -1 8.54522 136.488 2 1004 0 0 14 315
1952241N08137 1952 57 WP MM MARY 1952-08-28 06:00:00 TS 9.00000 136.000 1004 tokyo main 1045 1004 _O____________ -1 9.00000 136.000 2 1004 0 0 0 12 309
1952241N08137 1952 57 WP MM MARY 1952-08-28 09:00:00 TS 9.30224 135.537 main 995 946 _P____________ -1 9.30224 135.537 2 1003 0 0 11 297
1952241N08137 1952 57 WP MM MARY 1952-08-28 12:00:00 TS 9.50000 135.000 1003 tokyo main 946 876 _O____________ -1 9.50000 135.000 2 1003 0 0 0 13 286
1952241N08137 1952 57 WP MM MARY 1952-08-28 15:00:00 TS 9.67277 134.250 main 876 794 _P____________ -1 9.67277 134.250 2 1003 0 0 15 281
1952241N08137 1952 57 WP MM MARY 1952-08-28 18:00:00 TS 9.80000 133.500 1003 tokyo main 794 745 _O____________ -1 9.80000 133.500 2 1003 0 0 0 13 281
1952241N08137 1952 57 WP MM MARY 1952-08-28 21:00:00 TS 9.90708 132.992 main 745 693 _P____________ -1 9.90708 132.992 2 1003 0 0 10 281
1952241N08137 1952 57 WP MM MARY 1952-08-29 00:00:00 TS 10.0000 132.500 1003 tokyo main 693 621 _O____________ -1 10.0000 132.500 2 1003 0 0 0 12 279
1952241N08137 1952 57 WP MM MARY 1952-08-29 03:00:00 TS 10.0927 131.807 main 621 549 _P____________ -1 10.0927 131.807 2 1002 0 0 14 278
1952241N08137 1952 57 WP MM MARY 1952-08-29 06:00:00 TS 10.2000 131.100 1002 tokyo main 549 487 _O____________ -1 10.2000 131.100 2 1002 0 0 0 13 280
1952241N08137 1952 57 WP MM MARY 1952-08-29 09:00:00 TS 10.3273 130.520 main 487 441 _P____________ -1 10.3273 130.520 2 1002 0 0 11 286
1952241N08137 1952 57 WP MM MARY 1952-08-29 12:00:00 TS 10.5000 130.000 1002 tokyo main 441 398 _O____________ -1 10.5000 130.000 2 1002 0 0 0 11 292
1952241N08137 1952 57 WP MM MARY 1952-08-29 15:00:00 TS 10.7349 129.492 main 398 349 _P____________ -1 10.7349 129.492 2 1002 0 0 11 297
1952241N08137 1952 57 WP MM MARY 1952-08-29 18:00:00 TS 11.0000 129.000 1002 tokyo main 349 295 _O____________ -1 11.0000 129.000 2 1002 0 0 0 11 294
1952241N08137 1952 57 WP MM MARY 1952-08-29 21:00:00 TS 11.1749 128.499 main 295 246 _P____________ -1 11.1749 128.499 2 1000 0 0 11 297
1952241N08137 1952 57 WP MM MARY 1952-08-30 00:00:00 NR 11.5000 128.000 998 tokyo main 246 225 _O____________ -1 11.5000 128.000 9 998 0 0 0 14 317
1952241N08137 1952 57 WP MM MARY 1952-08-30 03:00:00 NR 12.2047 127.530 main 217 185 _P____________ -1 12.2047 127.530 9 998 0 0 18 327
1952241N08137 1952 57 WP MM MARY 1952-08-30 06:00:00 NR 13.0000 127.000 998 tokyo main 185 163 _O____________ -1 13.0000 127.000 9 998 0 0 0 18 319
1952241N08137 1952 57 WP MM MARY 1952-08-30 09:00:00 NR 13.5652 126.300 main 171 131 _P____________ -1 13.5652 126.300 9 998 0 0 18 309
1952241N08137 1952 57 WP MM MARY 1952-08-30 12:00:00 NR 14.1000 125.600 998 tokyo main 131 109 _O____________ -1 14.1000 125.600 9 998 0 0 0 17 315
1952241N08137 1952 57 WP MM MARY 1952-08-30 15:00:00 NR 14.7496 125.077 main 116 116 _P____________ -1 14.7496 125.077 9 997 0 0 16 323
1952241N08137 1952 57 WP MM MARY 1952-08-30 18:00:00 NR 15.4000 124.600 996 tokyo main 160 160 _O____________ -1 15.4000 124.600 9 996 0 0 0 16 320
1952241N08137 1952 57 WP MM MARY 1952-08-30 21:00:00 NR 15.9275 124.042 main 195 115 _P____________ -1 15.9275 124.042 9 994 0 0 15 316
1952241N08137 1952 57 WP MM MARY 1952-08-31 00:00:00 NR 16.5000 123.500 992 tokyo main 115 62 _O____________ -1 16.5000 123.500 9 992 0 0 0 17 324
1952241N08137 1952 57 WP MM MARY 1952-08-31 03:00:00 NR 17.2999 123.013 main 62 38 _P____________ -1 17.2999 123.013 9 991 0 0 18 332
1952241N08137 1952 57 WP MM MARY 1952-08-31 06:00:00 NR 18.1000 122.600 990 tokyo main 38 10 _O____________ -1 18.1000 122.600 9 990 0 0 0 15 334
1952241N08137 1952 57 WP MM MARY 1952-08-31 09:00:00 NR 18.6721 122.306 main 33 33 _P____________ -1 18.6721 122.306 9 990 0 0 12 333
1952241N08137 1952 57 WP MM MARY 1952-08-31 12:00:00 NR 19.2000 122.000 990 tokyo main 90 90 _O____________ -1 19.2000 122.000 9 990 0 0 0 14 328
1952241N08137 1952 57 WP MM MARY 1952-08-31 15:00:00 NR 19.8803 121.493 main 156 156 _P____________ -1 19.8803 121.493 9 990 0 0 16 324
1952241N08137 1952 57 WP MM MARY 1952-08-31 18:00:00 NR 20.5000 121.000 990 tokyo main 156 134 _O____________ -1 20.5000 121.000 9 990 0 0 0 11 319
1952241N08137 1952 57 WP MM MARY 1952-08-31 21:00:00 NR 20.7073 120.733 main 134 91 _P____________ -1 20.7073 120.733 9 987 0 0 8 326
1952241N08137 1952 57 WP MM MARY 1952-09-01 00:00:00 NR 21.2000 120.500 985 tokyo main 80 15 _O____________ -1 21.2000 120.500 9 985 0 0 0 21 343
1952241N08137 1952 57 WP MM MARY 1952-09-01 03:00:00 NR 22.7480 120.059 main 15 10 _P____________ -1 22.7480 120.059 9 985 0 0 33 347
1952241N08137 1952 57 WP MM MARY 1952-09-01 06:00:00 NR 24.4000 119.700 985 tokyo main 75 11 _O____________ -1 24.4000 119.700 9 985 0 0 0 25 351
1952241N08137 1952 57 WP MM MARY 1952-09-01 09:00:00 NR 25.2045 119.651 main 15 0 _P____________ -1 25.2045 119.651 9 987 0 0 14 4
1952241N08137 1952 57 WP MM MARY 1952-09-01 12:00:00 NR 25.8000 119.800 990 tokyo main 14 0 _O____________ -1 25.8000 119.800 9 990 0 0 0 15 12
1952241N08137 1952 57 WP MM MARY 1952-09-01 15:00:00 NR 26.6775 120.005 main 0 0 _P____________ -1 26.6775 120.005 9 990 0 0 19 14
1952241N08137 1952 57 WP MM MARY 1952-09-01 18:00:00 NR 27.6000 120.300 990 tokyo main 0 0 _O____________ -1 27.6000 120.300 9 990 0 0 0 19 18
1952241N08137 1952 57 WP MM MARY 1952-09-01 21:00:00 NR 28.4501 120.650 main 0 0 _P____________ -1 28.4501 120.650 9 990 0 0 18 20
1952241N08137 1952 57 WP MM MARY 1952-09-02 00:00:00 NR 29.3000 121.000 990 tokyo main 0 0 _O____________ -1 29.3000 121.000 9 990 0 0 0 18 16
1952241N08137 1952 57 WP MM MARY 1952-09-02 03:00:00 NR 30.1846 121.229 main 0 0 _P____________ -1 30.1846 121.229 9 990 0 0 19 13
1952241N08137 1952 57 WP MM MARY 1952-09-02 06:00:00 NR 31.1000 121.500 990 tokyo main 0 0 _O____________ -1 31.1000 121.500 9 990 0 0 0 20 18
1952241N08137 1952 57 WP MM MARY 1952-09-02 09:00:00 NR 32.0500 121.948 main 18 18 _P____________ -1 32.0500 121.948 9 990 0 0 21 24
1952241N08137 1952 57 WP MM MARY 1952-09-02 12:00:00 NR 33.0000 122.500 990 tokyo main 122 122 _O____________ -1 33.0000 122.500 9 990 0 0 0 21 26
1952241N08137 1952 57 WP MM MARY 1952-09-02 15:00:00 NR 33.9294 123.056 main 230 229 _P____________ -1 33.9294 123.056 9 990 0 0 21 29
1952241N08137 1952 57 WP MM MARY 1952-09-02 18:00:00 NR 34.8000 123.700 990 tokyo main 229 163 _O____________ -1 34.8000 123.700 9 990 0 0 0 21 35
1952241N08137 1952 57 WP MM MARY 1952-09-02 21:00:00 NR 35.6105 124.499 main 163 84 _P____________ -1 35.6105 124.499 9 990 0 0 20 41
1952241N08137 1952 57 WP MM MARY 1952-09-03 00:00:00 NR 36.3000 125.300 990 tokyo main 84 35 _O____________ -1 36.3000 125.300 9 990 0 0 0 16 40
1952241N08137 1952 57 WP MM MARY 1952-09-03 03:00:00 NR 36.8324 125.763 main 28 20 _P____________ -1 36.8324 125.763 9 989 0 0 14 44
1952241N08137 1952 57 WP MM MARY 1952-09-03 06:00:00 NR 37.3000 126.500 988 tokyo main 14 0 _O____________ -1 37.3000 126.500 9 988 0 0 0 22 64
1952241N08137 1952 57 WP MM MARY 1952-09-03 09:00:00 NR 37.7865 128.232 main 0 0 _P____________ -1 37.7865 128.232 9 990 0 0 29 70
1952241N08137 1952 57 WP MM MARY 1952-09-03 12:00:00 NR 38.3000 130.000 992 tokyo main 103 103 _O____________ -1 38.3000 130.000 9 992 0 0 0 23 61
1952241N08137 1952 57 WP MM MARY 1952-09-03 15:00:00 NR 38.9293 130.817 main 199 196 _P____________ -1 38.9293 130.817 9 992 0 0 17 40
1952241N08137 1952 57 WP MM MARY 1952-09-03 18:00:00 NR 39.6000 131.400 992 tokyo main 196 195 _O____________ -1 39.6000 131.400 9 992 0 0 0 17 42
1952241N08137 1952 57 WP MM MARY 1952-09-03 21:00:00 NR 40.2064 132.312 main 229 212 _P____________ -1 40.2064 132.312 9 992 0 0 19 52
1952241N08137 1952 57 WP MM MARY 1952-09-04 00:00:00 NR 40.8000 133.400 992 tokyo main 213 169 _O____________ -1 40.8000 133.400 9 992 0 0 0 21 56
1952241N08137 1952 57 WP MM MARY 1952-09-04 03:00:00 NR 41.4224 134.655 main 176 165 _P____________ -1 41.4224 134.655 9 993 0 0 23 58
1952241N08137 1952 57 WP MM MARY 1952-09-04 06:00:00 NR 42.0000 136.000 994 tokyo main 182 179 _O____________ -1 42.0000 136.000 9 994 0 0 0 23 62
1952241N08137 1952 57 WP MM MARY 1952-09-04 09:00:00 NR 42.5194 137.434 main 196 103 _P____________ -1 42.5194 137.434 9 995 0 0 21 65
1952241N08137 1952 57 WP MM MARY 1952-09-04 12:00:00 NR 42.9000 138.600 996 tokyo main 103 78 _O____________ -1 42.9000 138.600 9 996 0 0 0 14 65
1952241N08137 1952 57 WP MM MARY 1952-09-04 15:00:00 NR 43.0998 139.138 main 79 68 _P____________ -1 43.0998 139.138 9 998 0 0 7 63
1952241N08137 1952 57 WP MM MARY 1952-09-04 18:00:00 NR 43.2000 139.400 1000 tokyo main 72 48 _O____________ -1 43.2000 139.400 9 1000 0 0 0 5 66
1952241N08137 1952 57 WP MM MARY 1952-09-04 21:00:00 NR 43.2964 139.753 main 40 13 _P____________ -1 43.2964 139.753 9 1002 0 0 6 71
1952241N08137 1952 57 WP MM MARY 1952-09-05 00:00:00 ET 43.4000 140.200 1004 tokyo main 13 _O____________ -1 43.4000 140.200 6 1004 0 0 0 7 72

デジタル台風データ・検索

IBTrACS Databaseについて

本データベースは、米国NOAAが公開する1842年以降の世界の熱帯低気圧のベストトラックデータアーカイブInternational Best Track Archive for Climate Stewardship (IBTrACS)を、ウェブで閲覧しやすい形式に変換したものです。

最終更新日:2021-12-06